Ana Sayfa
METAR-TAF:

METAR-TAF

Havaalanları :

N'Djamena, Çad

Enlem: 12-08N, Boylam: 015-02E, yükseklik: 295 m

Güncel hava durumu gözlemi

Rapor saat 02:00 UTC de 1 saat ve 3 dakika önce yapıldı.
Rüzgar güneydan 8 kt
Sıcaklık 33°C
Nem 36%
Basınç 1005 hPa
Görüş mesafesi 10 km veya daha fazla
1500 m altında bulut yok ve kümülonimbus yok

METAR: FTTJ 240200Z 19008KT CAVOK 33/16 Q1005 NOSIG

Saat: 04:03 (03:03 UTC)

Tahmin

Rapor saat 23:00 UTC de 4 saat ve 3 dakika önce yapıldı.
Ayın 24'si saat 00 UTC'den ayın 25'si saat 06 UTC'ye kadar geçerli Tahmin
Rüzgar batı/güneybatıdan 6 kt
Görüş mesafesi: 8000 m
Olasılık 30% :
Geçici
ayın 24'si saat 14 UTC'den ayın 24'si saat 18 UTC'ye kadar
gök gürültülü fırtına

TAF: FTTJ 232300Z 2400/2506 24006KT 8000 NSC PROB30 TEMPO 2414/2418 TS

4.000'den fazla havaalanı için hava durumu gözlemleri ve tahminleri (METAR ve TAF raporları).

Kullanılabilir istasyonlar harita üzerinde sarı ve kırmızı noktalarla gösterilir.

İstasyonun adını görmek için fareyi noktanın üzerinde gezdirin.

Sonrasında hava gözlem ve tahminlerini görmek için tıklayın.

Haritayı değiştirmek için: yaklaştırmak için siyah artı işaretli yeşil düğmeye ve uzaklaştırmak için de eksi işaretli düğmeye hızla tıklayın; bitişik haritalar için yeşil okları kullanın.


METAR-TAF: